Abbottabad Weather



Abbottabad's Current Weather

Temprature 14.44o clear sky

clear sky

Rain: 0 %

Min Temprature14.44o
Max Temprature14.44o
Humidity62
Wind Speed2.2 m/h
Sun Rise06:23:17
Sun Set17:18:23
Current Time: 28-Oct-2020 06:50:51
Lat/Lon: 34.15, 73.21




Abbottabad's Geo Location



Abbottabad's Weather Forecast

Time Overall Temp Min Temp Max Temp Humidity Wind Speed Rain
28-Oct-2020 (Wed)
08:00:00 clear sky 15.720 15.720 17.070 46 1.81 m/h 0 %
11:00:00 clear sky 21.240 21.240 23.110 29 2.11 m/h 0 %
14:00:00 scattered clouds 22.940 22.940 23.520 21 3.9 m/h 0 %
17:00:00 broken clouds 17.320 17.320 17.340 29 1.55 m/h 0 %
20:00:00 clear sky 14.170 14.170 14.170 34 1.63 m/h 0 %
23:00:00 clear sky 13.470 13.470 13.470 36 2.46 m/h 0 %
29-Oct-2020 (Thu)
02:00:00 clear sky 12.840 12.840 12.840 37 2.7 m/h 0 %
05:00:00 clear sky 12.450 12.450 12.450 38 2.83 m/h 0 %
08:00:00 clear sky 16.570 16.570 16.570 30 2.04 m/h 0 %
11:00:00 broken clouds 22.380 22.380 22.380 21 2.08 m/h 0 %
14:00:00 overcast clouds 22.960 22.960 22.960 20 3.14 m/h 0 %
17:00:00 broken clouds 17.330 17.330 17.330 29 1.64 m/h 0 %
20:00:00 clear sky 14.130 14.130 14.130 35 1.61 m/h 0 %
23:00:00 clear sky 13.360 13.360 13.360 37 2.7 m/h 0 %
30-Oct-2020 (Fri)
02:00:00 clear sky 12.620 12.620 12.620 38 2.9 m/h 0 %
05:00:00 clear sky 12.040 12.040 12.040 39 2.91 m/h 0 %
08:00:00 clear sky 16.050 16.050 16.050 31 2.5 m/h 0 %
11:00:00 clear sky 23.020 23.020 23.020 20 1.19 m/h 0 %
14:00:00 clear sky 23.520 23.520 23.520 18 3.72 m/h 0 %
17:00:00 clear sky 17.010 17.010 17.010 29 1.78 m/h 0 %
20:00:00 clear sky 13.510 13.510 13.510 35 1.66 m/h 0 %
23:00:00 clear sky 12.920 12.920 12.920 36 2.93 m/h 0 %
31-Oct-2020 (Sat)
02:00:00 clear sky 12.140 12.140 12.140 38 3.18 m/h 0 %
05:00:00 clear sky 11.660 11.660 11.660 38 2.99 m/h 0 %
08:00:00 clear sky 15.850 15.850 15.850 30 2.76 m/h 0 %
11:00:00 clear sky 23.280 23.280 23.280 18 1.65 m/h 0 %
14:00:00 clear sky 24.320 24.320 24.320 17 3.24 m/h 0 %
17:00:00 clear sky 16.710 16.710 16.710 29 1.37 m/h 0 %
20:00:00 clear sky 13.820 13.820 13.820 32 1.64 m/h 0 %
23:00:00 clear sky 13.300 13.300 13.300 33 2.93 m/h 0 %
01-Nov-2020 (Sun)
02:00:00 clear sky 12.750 12.750 12.750 34 3.15 m/h 0 %
05:00:00 clear sky 12.520 12.520 12.520 34 2.83 m/h 0 %
08:00:00 clear sky 16.780 16.780 16.780 28 2.58 m/h 0 %
11:00:00 clear sky 24.380 24.380 24.380 17 1.41 m/h 0 %
14:00:00 clear sky 24.880 24.880 24.880 17 3.47 m/h 0 %
17:00:00 clear sky 17.350 17.350 17.350 28 1.27 m/h 0 %
20:00:00 clear sky 14.430 14.430 14.430 31 1.78 m/h 0 %
23:00:00 clear sky 13.660 13.660 13.660 33 2.74 m/h 0 %
02-Nov-2020 (Mon)
02:00:00 clear sky 13.180 13.180 13.180 35 2.89 m/h 0 %
05:00:00 clear sky 12.840 12.840 12.840 35 2.81 m/h 0 %


Abbottabad's Tourist Spots

Historical Places in Abbottabad

Famous Cities (60)